createdAt,value
2022-08-31T00:01:20.915Z,102357.00
2022-08-31T00:04:03.515Z,102354.28
2022-08-31T00:06:33.095Z,102362.50
2022-08-31T00:09:01.153Z,102360.59
2022-08-31T00:11:30.977Z,102352.56
2022-08-31T00:13:59.371Z,102353.53
2022-08-31T00:16:28.121Z,102356.22
2022-08-31T00:18:56.173Z,102349.09
2022-08-31T00:21:26.167Z,102348.41
2022-08-31T00:23:55.589Z,102351.31
2022-08-31T00:26:23.692Z,102352.56
2022-08-31T00:28:52.292Z,102355.38
2022-08-31T00:31:20.562Z,102357.41
2022-08-31T00:36:21.236Z,102350.53
2022-08-31T00:38:49.566Z,102358.81
2022-08-31T00:41:20.693Z,102357.09
2022-08-31T00:43:51.355Z,102363.56
2022-08-31T00:46:21.787Z,102371.94
2022-08-31T00:48:52.833Z,102372.13
2022-08-31T00:51:20.970Z,102376.75
2022-08-31T00:53:50.851Z,102369.63
2022-08-31T00:56:20.896Z,102380.59
2022-08-31T00:58:54.679Z,102375.38
2022-08-31T01:01:23.883Z,102379.94
2022-08-31T01:03:52.105Z,102373.78
2022-08-31T01:06:20.152Z,102373.78
2022-08-31T01:08:48.216Z,102371.19
2022-08-31T01:11:16.232Z,102372.13
2022-08-31T01:13:46.075Z,102371.38
2022-08-31T01:16:15.798Z,102377.91
2022-08-31T01:18:43.900Z,102369.97
2022-08-31T01:21:22.260Z,102369.31
2022-08-31T01:23:51.651Z,102370.56
2022-08-31T01:26:21.314Z,102360.97
2022-08-31T01:28:49.634Z,102369.25
2022-08-31T01:31:21.123Z,102371.28
2022-08-31T01:33:49.149Z,102376.94
2022-08-31T01:36:17.431Z,102369.00
2022-08-31T01:38:45.753Z,102370.16
2022-08-31T01:41:15.114Z,102372.97
2022-08-31T01:43:43.204Z,102376.72
2022-08-31T01:46:13.234Z,102372.44
2022-08-31T01:48:41.747Z,102372.56
2022-08-31T01:51:10.792Z,102375.50
2022-08-31T01:53:42.095Z,102372.88
2022-08-31T01:56:15.865Z,102378.47
2022-08-31T01:58:45.100Z,102375.94
2022-08-31T02:01:32.569Z,102377.09
2022-08-31T02:04:01.464Z,102375.44
2022-08-31T02:06:29.512Z,102378.25
2022-08-31T02:08:57.486Z,102381.16
2022-08-31T02:11:27.018Z,102375.81
2022-08-31T02:13:55.035Z,102370.63
2022-08-31T02:16:23.065Z,102373.47
2022-08-31T02:18:51.280Z,102371.72
2022-08-31T02:21:19.296Z,102370.88
2022-08-31T02:23:47.298Z,102376.34
2022-08-31T02:26:15.400Z,102377.22
2022-08-31T02:28:44.773Z,102368.50
2022-08-31T02:31:12.896Z,102370.34
2022-08-31T02:33:41.005Z,102366.00
2022-08-31T02:36:09.118Z,102360.66
2022-08-31T02:38:39.032Z,102363.72
2022-08-31T02:41:07.280Z,102369.97
2022-08-31T02:43:35.291Z,102375.47
2022-08-31T02:46:04.728Z,102367.63
2022-08-31T02:48:32.812Z,102367.53
2022-08-31T02:51:04.495Z,102368.50
2022-08-31T02:53:32.511Z,102370.41
2022-08-31T02:56:00.514Z,102361.47
2022-08-31T02:58:28.521Z,102366.03
2022-08-31T03:00:56.530Z,102363.34
2022-08-31T03:03:25.983Z,102359.03
2022-08-31T03:05:54.020Z,102352.03
2022-08-31T03:08:22.013Z,102344.81
2022-08-31T03:10:49.986Z,102350.22
2022-08-31T03:13:18.116Z,102356.47
2022-08-31T03:15:46.256Z,102349.16
2022-08-31T03:18:14.284Z,102347.34
2022-08-31T03:20:43.673Z,102348.28
2022-08-31T03:23:12.316Z,102350.84
2022-08-31T03:25:40.433Z,102362.56
2022-08-31T03:28:08.439Z,102355.34
2022-08-31T03:30:36.424Z,102361.63
2022-08-31T03:33:04.393Z,102359.72
2022-08-31T03:35:32.392Z,102365.88
2022-08-31T03:38:02.611Z,102367.53
2022-08-31T03:40:30.742Z,102368.41
2022-08-31T03:42:58.971Z,102355.00
2022-08-31T03:45:27.861Z,102360.50
2022-08-31T03:47:55.944Z,102365.09
2022-08-31T03:50:23.953Z,102359.81
2022-08-31T03:52:54.236Z,102359.03
2022-08-31T03:55:23.729Z,102351.97
2022-08-31T03:57:51.751Z,102359.19
2022-08-31T04:00:20.085Z,102353.09
2022-08-31T04:02:48.132Z,102369.28
2022-08-31T04:05:16.458Z,102364.97
2022-08-31T04:07:44.514Z,102365.06
2022-08-31T04:10:12.880Z,102369.69
2022-08-31T04:12:42.361Z,102363.41
2022-08-31T04:15:10.939Z,102365.31
2022-08-31T04:17:38.939Z,102362.72
2022-08-31T04:20:07.808Z,102361.06
2022-08-31T04:22:35.823Z,102370.19
2022-08-31T04:25:03.822Z,102365.81
2022-08-31T04:27:31.983Z,102357.31
2022-08-31T04:30:02.078Z,102373.22
2022-08-31T04:32:30.059Z,102377.84
2022-08-31T04:34:58.246Z,102377.84
2022-08-31T04:37:26.255Z,102378.78
2022-08-31T04:39:59.341Z,102386.94
2022-08-31T04:42:27.542Z,102388.84
2022-08-31T04:44:55.549Z,102391.59
2022-08-31T04:47:24.965Z,102388.09
2022-08-31T04:49:52.976Z,102383.69
2022-08-31T04:52:28.110Z,102395.34
2022-08-31T04:54:56.961Z,102396.19
2022-08-31T04:57:25.017Z,102393.59
2022-08-31T04:59:53.161Z,102396.44
2022-08-31T05:02:21.217Z,102392.88
2022-08-31T05:04:50.565Z,102398.28
2022-08-31T05:07:18.612Z,102394.75
2022-08-31T05:09:46.647Z,102385.03
2022-08-31T05:12:14.615Z,102381.72
2022-08-31T05:14:43.349Z,102391.53
2022-08-31T05:17:15.029Z,102378.13
2022-08-31T05:19:43.436Z,102391.75
2022-08-31T05:22:12.838Z,102393.53
2022-08-31T05:24:40.881Z,102396.22
2022-08-31T05:27:09.796Z,102394.41
2022-08-31T05:29:37.962Z,102397.16
2022-08-31T05:32:06.095Z,102394.22
2022-08-31T05:34:34.493Z,102389.06
2022-08-31T05:37:02.493Z,102396.91
2022-08-31T05:39:33.344Z,102400.50
2022-08-31T05:42:01.489Z,102399.59
2022-08-31T05:44:29.765Z,102399.47
2022-08-31T05:47:03.409Z,102403.81
2022-08-31T05:49:32.554Z,102405.31
2022-08-31T05:52:00.878Z,102404.22
2022-08-31T05:54:28.951Z,102404.00
2022-08-31T05:57:01.301Z,102405.63
2022-08-31T05:59:30.105Z,102400.97
2022-08-31T06:01:58.317Z,102404.28
2022-08-31T06:04:26.384Z,102411.94
2022-08-31T06:06:54.401Z,102409.88
2022-08-31T06:09:22.459Z,102409.63
2022-08-31T06:11:51.358Z,102366.47
2022-08-31T06:14:22.866Z,102406.09
2022-08-31T06:16:51.765Z,102404.81
2022-08-31T06:19:20.746Z,102413.44
2022-08-31T06:21:51.466Z,102413.84
2022-08-31T06:24:19.852Z,102412.81
2022-08-31T06:26:58.774Z,102412.34
2022-08-31T06:29:31.713Z,102405.63
2022-08-31T06:32:00.437Z,102415.28
2022-08-31T06:34:29.480Z,102426.59
2022-08-31T06:36:57.542Z,102422.69
2022-08-31T06:39:25.596Z,102427.84
2022-08-31T06:41:53.962Z,102429.50
2022-08-31T06:44:22.687Z,102434.69
2022-08-31T06:46:52.376Z,102386.38
2022-08-31T06:49:20.518Z,102436.78
2022-08-31T06:51:48.495Z,102438.94
2022-08-31T06:54:32.673Z,102438.59
2022-08-31T06:57:02.855Z,102442.59
2022-08-31T06:59:31.067Z,102444.94
2022-08-31T07:02:01.286Z,102435.78
2022-08-31T07:04:32.436Z,102446.25
2022-08-31T07:07:00.568Z,102435.34
2022-08-31T07:09:28.625Z,102436.31
2022-08-31T07:11:56.857Z,102427.84
2022-08-31T07:14:26.126Z,102446.84
2022-08-31T07:16:58.598Z,102451.88
2022-08-31T07:19:28.164Z,102455.94
2022-08-31T07:21:57.025Z,102447.56
2022-08-31T07:24:27.839Z,102463.00
2022-08-31T07:26:58.147Z,102459.53
2022-08-31T07:29:27.702Z,102460.03
2022-08-31T07:31:55.731Z,102451.16
2022-08-31T07:34:25.938Z,102459.47
2022-08-31T07:37:13.012Z,102458.69
2022-08-31T07:40:01.294Z,102454.84
2022-08-31T07:42:33.187Z,102449.53
2022-08-31T07:45:02.295Z,102450.38
2022-08-31T07:47:30.467Z,102447.00
2022-08-31T07:50:00.644Z,102451.66
2022-08-31T07:52:30.848Z,102459.66
2022-08-31T07:55:07.855Z,102451.38
2022-08-31T07:57:36.376Z,102451.25
2022-08-31T08:00:08.381Z,102446.84
2022-08-31T08:02:39.240Z,102450.97
2022-08-31T08:05:08.516Z,102451.88
2022-08-31T08:07:38.700Z,102454.84
2022-08-31T08:10:08.465Z,102449.03
2022-08-31T08:12:37.696Z,102452.38
2022-08-31T08:15:06.193Z,102459.97
2022-08-31T08:17:34.318Z,102452.91
2022-08-31T08:20:02.412Z,102457.56
2022-08-31T08:22:50.824Z,102459.19
2022-08-31T08:25:25.770Z,102456.06
2022-08-31T08:27:55.256Z,102451.81
2022-08-31T08:30:23.462Z,102457.53
2022-08-31T08:32:51.438Z,102457.75
2022-08-31T08:35:19.773Z,102461.63
2022-08-31T08:37:58.411Z,102456.28
2022-08-31T08:40:31.634Z,102454.94
2022-08-31T08:43:00.031Z,102450.47
2022-08-31T08:45:28.098Z,102452.72
2022-08-31T08:47:57.041Z,102449.78
2022-08-31T08:50:26.712Z,102455.69
2022-08-31T08:52:56.110Z,102432.38
2022-08-31T08:55:27.780Z,102452.31
2022-08-31T08:58:01.649Z,102453.53
2022-08-31T09:00:30.585Z,102434.47
2022-08-31T09:03:19.891Z,102434.94
2022-08-31T09:06:08.544Z,102429.59
2022-08-31T09:09:13.277Z,102440.53
2022-08-31T09:11:47.272Z,102438.91
2022-08-31T09:14:25.377Z,102433.66
2022-08-31T09:16:56.243Z,102412.72
2022-08-31T09:19:24.620Z,102415.03
2022-08-31T09:21:54.049Z,102434.56
2022-08-31T09:24:22.907Z,102416.34
2022-08-31T09:27:00.894Z,102422.31
2022-08-31T09:29:31.934Z,102423.84
2022-08-31T09:32:07.037Z,102421.03
2022-08-31T09:34:37.321Z,102434.31
2022-08-31T09:37:16.286Z,102427.91
2022-08-31T09:39:47.685Z,102428.03
2022-08-31T09:42:20.787Z,102418.81
2022-08-31T09:44:51.456Z,102400.91
2022-08-31T09:47:42.225Z,102417.53
2022-08-31T09:50:13.527Z,102414.50
2022-08-31T09:52:59.301Z,102415.38
2022-08-31T09:55:28.222Z,102415.81
2022-08-31T09:57:59.157Z,102416.53
2022-08-31T10:00:33.213Z,102428.53
2022-08-31T10:03:09.747Z,102427.09
2022-08-31T10:05:41.833Z,102421.97
2022-08-31T10:08:19.469Z,102413.50
2022-08-31T10:10:47.782Z,102406.78
2022-08-31T10:13:18.148Z,102396.47
2022-08-31T10:15:50.990Z,102420.66
2022-08-31T10:18:21.921Z,102403.00
2022-08-31T10:20:55.979Z,102420.81
2022-08-31T10:23:27.287Z,102401.38
2022-08-31T10:25:57.523Z,102419.66
2022-08-31T10:28:32.201Z,102411.97
2022-08-31T10:31:03.513Z,102398.59
2022-08-31T10:33:54.263Z,102413.13
2022-08-31T10:36:28.309Z,102408.31
2022-08-31T10:38:57.999Z,102412.22
2022-08-31T10:41:29.108Z,102375.97
2022-08-31T10:44:01.711Z,102408.28
2022-08-31T10:46:33.390Z,102413.38
2022-08-31T10:49:01.945Z,102403.56
2022-08-31T10:51:33.197Z,102414.34
2022-08-31T10:54:08.391Z,102405.41
2022-08-31T10:56:41.683Z,102400.19
2022-08-31T10:59:17.418Z,102402.31
2022-08-31T11:01:55.949Z,102402.84
2022-08-31T11:04:48.933Z,102412.81
2022-08-31T11:07:35.407Z,102399.28
2022-08-31T11:10:10.273Z,102380.31
2022-08-31T11:12:42.430Z,102386.00
2022-08-31T11:15:22.497Z,102394.97
2022-08-31T11:18:24.989Z,102388.34
2022-08-31T11:21:04.068Z,102378.53
2022-08-31T11:23:45.122Z,102370.72
2022-08-31T11:26:47.934Z,102374.16
2022-08-31T11:29:29.923Z,102375.53
2022-08-31T11:32:01.153Z,102374.34
2022-08-31T11:34:30.724Z,102379.25
2022-08-31T11:37:01.118Z,102378.78
2022-08-31T11:39:41.483Z,102370.25
2022-08-31T11:42:48.500Z,102385.56
2022-08-31T11:45:27.346Z,102371.50
2022-08-31T11:47:55.956Z,102369.63
2022-08-31T11:51:07.393Z,102365.19
2022-08-31T11:53:37.546Z,102357.06
2022-08-31T11:56:06.671Z,102367.41
2022-08-31T11:58:37.995Z,102359.91
2022-08-31T12:01:09.517Z,102360.47
2022-08-31T12:03:55.767Z,102360.44
2022-08-31T12:07:11.120Z,102364.53
2022-08-31T12:09:58.747Z,102366.69
2022-08-31T12:12:34.304Z,102361.91
2022-08-31T12:15:07.838Z,102360.13
2022-08-31T12:17:40.221Z,102360.50
2022-08-31T12:20:09.602Z,102353.47
2022-08-31T12:23:30.050Z,102349.75
2022-08-31T12:26:06.929Z,102337.91
2022-08-31T12:28:39.741Z,102343.44
2022-08-31T12:31:11.418Z,102344.94
2022-08-31T12:33:50.818Z,102355.84
2022-08-31T12:36:19.916Z,102340.91
2022-08-31T12:38:47.934Z,102345.25
2022-08-31T12:41:17.296Z,102348.38
2022-08-31T12:43:46.093Z,102333.44
2022-08-31T12:46:30.658Z,102321.66
2022-08-31T12:49:26.136Z,102333.34
2022-08-31T12:51:56.962Z,102322.75
2022-08-31T12:54:40.660Z,102315.59
2022-08-31T12:57:13.568Z,102324.03
2022-08-31T12:59:59.857Z,102325.09
2022-08-31T13:02:32.902Z,102322.75
2022-08-31T13:05:01.150Z,102327.94
2022-08-31T13:07:31.076Z,102322.75
2022-08-31T13:10:07.205Z,102309.09
2022-08-31T13:12:36.635Z,102315.00
2022-08-31T13:15:04.929Z,102312.84
2022-08-31T13:17:36.976Z,102299.75
2022-08-31T13:20:08.498Z,102307.22
2022-08-31T13:22:41.254Z,102309.16
2022-08-31T13:25:16.460Z,102305.69
2022-08-31T13:27:49.502Z,102308.41
2022-08-31T13:30:20.190Z,102286.22
2022-08-31T13:32:51.275Z,102293.13
2022-08-31T13:35:20.233Z,102293.88
2022-08-31T13:37:52.523Z,102290.78
2022-08-31T13:40:23.869Z,102270.03
2022-08-31T13:42:56.461Z,102291.75
2022-08-31T13:45:27.442Z,102280.47
2022-08-31T13:47:58.083Z,102281.16
2022-08-31T13:50:29.182Z,102287.78
2022-08-31T13:53:25.332Z,102271.53
2022-08-31T13:55:48.860Z,102273.06
2022-08-31T13:58:27.643Z,102279.34
2022-08-31T14:00:58.885Z,102257.88
2022-08-31T14:03:35.001Z,102255.72
2022-08-31T14:06:24.036Z,102250.41
2022-08-31T14:08:54.554Z,102272.41
2022-08-31T14:11:22.709Z,102254.69
2022-08-31T14:13:52.740Z,102250.63
2022-08-31T14:16:30.648Z,102236.25
2022-08-31T14:18:58.847Z,102248.09
2022-08-31T14:21:29.026Z,102253.13
2022-08-31T14:24:00.569Z,102247.94
2022-08-31T14:26:29.528Z,102244.78
2022-08-31T14:29:00.438Z,102245.47
2022-08-31T14:31:31.042Z,102246.66
2022-08-31T14:34:20.379Z,102245.47
2022-08-31T14:36:52.837Z,102234.41
2022-08-31T14:39:26.586Z,102244.84
2022-08-31T14:41:55.061Z,102250.22
2022-08-31T14:44:26.104Z,102232.47
2022-08-31T14:46:54.171Z,102230.09
2022-08-31T14:49:22.120Z,102227.84
2022-08-31T14:51:50.284Z,102218.16
2022-08-31T14:54:18.381Z,102224.69
2022-08-31T14:56:50.311Z,102228.63
2022-08-31T14:59:21.561Z,102220.13
2022-08-31T15:01:51.368Z,102216.50
2022-08-31T15:04:20.659Z,102213.59
2022-08-31T15:06:50.087Z,102217.94
2022-08-31T15:09:18.169Z,102216.25
2022-08-31T15:11:46.314Z,102204.91
2022-08-31T15:14:14.280Z,102207.78
2022-08-31T15:16:43.087Z,102200.81
2022-08-31T15:19:13.558Z,102197.53
2022-08-31T15:21:51.780Z,102183.16
2022-08-31T15:24:21.143Z,102201.53
2022-08-31T15:26:49.390Z,102197.25
2022-08-31T15:29:17.896Z,102189.63
2022-08-31T15:31:49.229Z,102177.34
2022-08-31T15:34:25.482Z,102179.13
2022-08-31T15:36:56.323Z,102175.81
2022-08-31T15:39:24.774Z,102185.34
2022-08-31T15:41:52.883Z,102179.56
2022-08-31T15:44:21.378Z,102170.34
2022-08-31T15:47:06.977Z,102178.50
2022-08-31T15:49:37.154Z,102170.66
2022-08-31T15:52:06.854Z,102162.50
2022-08-31T15:54:35.825Z,102170.94
2022-08-31T15:57:06.854Z,102130.84
2022-08-31T15:59:35.145Z,102164.75
2022-08-31T16:02:03.473Z,102163.59
2022-08-31T16:04:33.358Z,102158.78
2022-08-31T16:07:05.230Z,102150.06
2022-08-31T16:09:33.378Z,102152.00
2022-08-31T16:12:02.424Z,102135.88
2022-08-31T16:14:31.730Z,102144.84
2022-08-31T16:17:00.426Z,102141.53
2022-08-31T16:19:35.505Z,102144.00
2022-08-31T16:22:05.743Z,102151.63
2022-08-31T16:24:37.414Z,102132.28
2022-08-31T16:27:06.418Z,102137.53
2022-08-31T16:29:34.542Z,102130.78
2022-08-31T16:32:02.809Z,102122.78
2022-08-31T16:34:31.596Z,102124.88
2022-08-31T16:37:01.103Z,102110.88
2022-08-31T16:39:31.132Z,102118.47
2022-08-31T16:41:59.916Z,102118.78
2022-08-31T16:44:36.500Z,102122.50
2022-08-31T16:47:07.085Z,102129.16
2022-08-31T16:49:34.236Z,102123.59
2022-08-31T16:52:03.469Z,102119.47
2022-08-31T16:54:34.050Z,102126.25
2022-08-31T16:57:02.415Z,102120.47
2022-08-31T16:59:30.821Z,102110.66
2022-08-31T17:01:58.993Z,102115.22
2022-08-31T17:04:51.123Z,102111.53
2022-08-31T17:07:16.315Z,102119.22
2022-08-31T17:09:45.805Z,102109.22
2022-08-31T17:12:15.256Z,102105.78
2022-08-31T17:14:46.537Z,102101.69
2022-08-31T17:17:15.517Z,102111.03
2022-08-31T17:19:44.547Z,102100.25
2022-08-31T17:22:21.387Z,102097.69
2022-08-31T17:24:56.326Z,102098.88
2022-08-31T17:27:24.794Z,102100.69
2022-08-31T17:29:53.937Z,102099.84
2022-08-31T17:32:23.704Z,102094.34
2022-08-31T17:34:52.103Z,102107.78
2022-08-31T17:37:23.038Z,102098.59
2022-08-31T17:42:35.651Z,102090.38
2022-08-31T17:45:05.124Z,102088.34
2022-08-31T17:47:33.986Z,102088.72
2022-08-31T17:50:01.987Z,102081.97
2022-08-31T17:52:30.210Z,102091.34
2022-08-31T17:55:00.522Z,102089.59
2022-08-31T17:57:29.658Z,102089.44
2022-08-31T17:59:59.134Z,102095.00
2022-08-31T18:02:32.596Z,102091.34
2022-08-31T18:05:01.117Z,102088.69
2022-08-31T18:07:29.415Z,102087.47
2022-08-31T18:09:57.669Z,102101.91
2022-08-31T18:12:26.094Z,102092.81
2022-08-31T18:14:57.549Z,102099.06
2022-08-31T18:17:28.097Z,102093.53
2022-08-31T18:19:59.527Z,102092.63
2022-08-31T18:22:29.156Z,102086.09
2022-08-31T18:24:58.204Z,102085.59
2022-08-31T18:27:27.287Z,102084.03
2022-08-31T18:29:56.683Z,102093.59
2022-08-31T18:32:27.118Z,102095.09
2022-08-31T18:34:58.351Z,102100.56
2022-08-31T18:37:26.950Z,102099.50
2022-08-31T18:40:12.885Z,102109.28
2022-08-31T18:42:58.360Z,102104.44
2022-08-31T18:45:27.129Z,102102.69
2022-08-31T18:50:45.816Z,102110.88
2022-08-31T18:53:15.466Z,102109.53
2022-08-31T18:55:55.725Z,102113.72
2022-08-31T18:58:24.185Z,102110.88
2022-08-31T19:00:59.838Z,102109.16
2022-08-31T19:03:30.240Z,102111.47
2022-08-31T19:05:58.437Z,102116.75
2022-08-31T19:08:26.990Z,102118.09
2022-08-31T19:10:56.440Z,102118.72
2022-08-31T19:13:26.412Z,102124.72
2022-08-31T19:15:58.033Z,102120.00
2022-08-31T19:18:30.687Z,102118.88
2022-08-31T19:20:58.866Z,102125.66
2022-08-31T19:23:28.181Z,102122.53
2022-08-31T19:25:56.270Z,102128.53
2022-08-31T19:28:24.504Z,102127.25
2022-08-31T19:30:52.623Z,102130.22
2022-08-31T19:33:24.985Z,102134.25
2022-08-31T19:36:01.356Z,102131.00
2022-08-31T19:38:33.136Z,102134.06
2022-08-31T19:41:01.599Z,102129.09
2022-08-31T19:44:01.976Z,102132.81
2022-08-31T19:46:20.289Z,102123.41
2022-08-31T19:48:49.644Z,102125.97
2022-08-31T19:51:20.478Z,102137.59
2022-08-31T19:53:49.894Z,102134.25
2022-08-31T19:56:21.067Z,102132.75
2022-08-31T19:58:50.222Z,102131.97
2022-08-31T20:01:18.677Z,102138.38
2022-08-31T20:03:47.999Z,102146.53
2022-08-31T20:06:19.321Z,102153.03
2022-08-31T20:08:47.768Z,102139.59
2022-08-31T20:11:21.288Z,102137.22
2022-08-31T20:13:49.930Z,102148.16
2022-08-31T20:16:18.305Z,102136.56
2022-08-31T20:18:48.674Z,102143.75
2022-08-31T20:21:19.398Z,102142.00
2022-08-31T20:23:48.027Z,102142.13
2022-08-31T20:26:16.130Z,102145.44
2022-08-31T20:28:46.841Z,102145.44
2022-08-31T20:31:15.307Z,102143.63
2022-08-31T20:33:43.437Z,102146.44
2022-08-31T20:36:18.830Z,102154.47
2022-08-31T20:38:48.380Z,102152.63
2022-08-31T20:41:16.615Z,102149.91
2022-08-31T20:43:45.271Z,102147.19
2022-08-31T20:46:34.493Z,102143.75
2022-08-31T20:49:20.085Z,102140.03
2022-08-31T20:51:48.079Z,102132.03
2022-08-31T20:54:18.197Z,102143.09
2022-08-31T20:56:46.214Z,102143.09
2022-08-31T20:59:14.262Z,102139.63
2022-08-31T21:01:42.374Z,102131.78
2022-08-31T21:04:10.465Z,102134.44
2022-08-31T21:06:39.273Z,102123.25
2022-08-31T21:09:08.219Z,102134.63
2022-08-31T21:11:40.666Z,102136.59
2022-08-31T21:14:08.741Z,102138.41
2022-08-31T21:16:36.802Z,102139.50
2022-08-31T21:19:05.073Z,102139.50
2022-08-31T21:21:33.077Z,102141.47
2022-08-31T21:24:01.126Z,102147.00
2022-08-31T21:26:29.189Z,102143.53
2022-08-31T21:28:59.856Z,102143.53
2022-08-31T21:31:29.417Z,102143.75
2022-08-31T21:33:59.053Z,102144.84
2022-08-31T21:36:27.545Z,102138.66
2022-08-31T21:38:56.332Z,102141.63
2022-08-31T21:41:25.738Z,102146.16
2022-08-31T21:43:53.742Z,102137.28
2022-08-31T21:46:25.138Z,102147.88
2022-08-31T21:48:54.222Z,102150.84
2022-08-31T21:51:23.097Z,102144.41
2022-08-31T21:53:52.002Z,102137.50
2022-08-31T21:56:20.297Z,102139.44
2022-08-31T21:58:48.499Z,102142.38
2022-08-31T22:01:18.645Z,102145.19
2022-08-31T22:03:48.265Z,102145.31
2022-08-31T22:06:22.068Z,102152.56
2022-08-31T22:08:55.922Z,102143.69
2022-08-31T22:11:24.837Z,102144.66
2022-08-31T22:13:54.076Z,102144.66
2022-08-31T22:16:22.164Z,102141.94
2022-08-31T22:19:01.647Z,102143.81
2022-08-31T22:21:31.200Z,102144.00
2022-08-31T22:24:00.306Z,102147.59
2022-08-31T22:26:29.297Z,102138.72
2022-08-31T22:28:57.336Z,102144.97
2022-08-31T22:31:27.329Z,102145.09
2022-08-31T22:33:57.164Z,102138.06
2022-08-31T22:36:31.131Z,102138.06
2022-08-31T22:39:03.176Z,102139.03
2022-08-31T22:41:32.041Z,102146.41
2022-08-31T22:44:00.212Z,102148.34
2022-08-31T22:46:28.400Z,102147.69
2022-08-31T22:48:58.353Z,102142.41
2022-08-31T22:51:27.085Z,102137.06
2022-08-31T22:53:55.128Z,102131.56
2022-08-31T22:56:25.988Z,102136.22
2022-08-31T22:58:54.225Z,102133.59
2022-08-31T23:01:23.236Z,102128.31
2022-08-31T23:03:51.593Z,102129.19
2022-08-31T23:06:23.296Z,102137.38
2022-08-31T23:08:51.832Z,102135.97
2022-08-31T23:11:20.411Z,102139.56
2022-08-31T23:13:55.567Z,102126.22
2022-08-31T23:16:25.053Z,102131.75
2022-08-31T23:18:53.788Z,102128.50
2022-08-31T23:21:24.932Z,102134.03
2022-08-31T23:23:53.125Z,102119.59
2022-08-31T23:26:22.588Z,102126.97
2022-08-31T23:28:52.651Z,102124.59
2022-08-31T23:31:21.569Z,102120.44
2022-08-31T23:33:53.293Z,102120.69
2022-08-31T23:36:26.141Z,102116.53
2022-08-31T23:38:54.921Z,102114.81
2022-08-31T23:41:26.066Z,102115.16
2022-08-31T23:43:54.384Z,102109.81
2022-08-31T23:46:23.895Z,102113.59
2022-08-31T23:48:52.126Z,102111.13
2022-08-31T23:51:20.379Z,102103.97
2022-08-31T23:53:55.206Z,102112.19
2022-08-31T23:56:32.607Z,102109.69
2022-08-31T23:59:01.933Z,102105.66
